Jensen Beach, Florida
Current Conditions -  °F | °C
As of 6:47 AM on Thursday 27 Nov 2014 (Local Time) from KSUA Reporting Station
Few Clouds Few Clouds  
Wind Chill: 50°   Ceiling: Unl
Heat Index: 50°   Visibility: 7mi
Dew Point: 43°   Wind: 6mph
Humidity: 76%   Direction: 330°NNW
Pressure: 30.26"   Gusts: NA
Location:  27.26°N, 80.23°W
Report Text: KSUA 271147Z 33005KT 7SM FEW040 10/06 A3026
Loading
Personal Weather Stations






























Interactive Weather Map New forecast layout! Learn more

10-Day Weather Forecast

Advertisements
Track Severe Weather on mobile